SPTN35 YSHW-YSHW
Flight info
| Callsign | SPTN35 |
|---|---|
| Flight time | 0h 6m |
| Altitude | 2000 |
| Route | 340752S1505417E |
| Aircraft | H60/M-SDFGRY/LB1 |
Departure
| Time | 2026-04-13 12:05 |
|---|---|
| Airport | Holsworthy (Military) Airport (YSHW) |
Arrival
| Time | 2026-04-13 12:12 |
|---|---|
| Airport | Holsworthy (Military) Airport (YSHW) |
| Time | Latitude | Longitude | Altitude | Speed | Heading |
|---|---|---|---|---|---|
| 2026-04-13 11:48 | -33.99451 | 150.95212 | 242 ft | 0 kts | 124° |
| 2026-04-13 12:04 | -33.99460 | 150.95229 | 244 ft | 4 kts | 125° |
| 2026-04-13 12:04 | -33.99488 | 150.95220 | 243 ft | 6 kts | 213° |
| 2026-04-13 12:04 | -33.99530 | 150.95189 | 244 ft | 8 kts | 210° |
| 2026-04-13 12:05 | -33.99565 | 150.95214 | 245 ft | 7 kts | 123° |
| 2026-04-13 12:05 | -33.99625 | 150.95299 | 361 ft | 24 kts | 120° |
| 2026-04-13 12:05 | -33.99855 | 150.95495 | 624 ft | 65 kts | 170° |
| 2026-04-13 12:05 | -34.00380 | 150.95244 | 1143 ft | 92 kts | 208° |
| 2026-04-13 12:06 | -34.00977 | 150.94884 | 1702 ft | 102 kts | 208° |
| 2026-04-13 12:06 | -34.01700 | 150.94537 | 1808 ft | 125 kts | 202° |
| 2026-04-13 12:06 | -34.02572 | 150.94204 | 1806 ft | 138 kts | 204° |
| 2026-04-13 12:06 | -34.03462 | 150.93824 | 1763 ft | 139 kts | 205° |
| 2026-04-13 12:07 | -34.04338 | 150.93439 | 1842 ft | 136 kts | 206° |
| 2026-04-13 12:07 | -34.05223 | 150.93062 | 1866 ft | 136 kts | 205° |
| 2026-04-13 12:07 | -34.06101 | 150.92660 | 1886 ft | 135 kts | 201° |
| 2026-04-13 12:07 | -34.07012 | 150.92360 | 1897 ft | 135 kts | 198° |
| 2026-04-13 12:08 | -34.07915 | 150.92061 | 1903 ft | 133 kts | 199° |
| 2026-04-13 12:08 | -34.08815 | 150.91737 | 1905 ft | 136 kts | 199° |
| 2026-04-13 12:08 | -34.09697 | 150.91398 | 1901 ft | 134 kts | 200° |
| 2026-04-13 12:08 | -34.10570 | 150.91039 | 1902 ft | 130 kts | 202° |
| 2026-04-13 12:09 | -34.11439 | 150.90658 | 1902 ft | 132 kts | 201° |
| 2026-04-13 12:09 | -34.12241 | 150.90303 | 1800 ft | 109 kts | 199° |
| 2026-04-13 12:09 | -34.12723 | 150.90090 | 1952 ft | 86 kts | 200° |
| 2026-04-13 12:11 | -34.13068 | 150.89916 | 2146 ft | 64 kts | 209° |
| 2026-04-13 12:11 | -34.13268 | 150.89583 | 1728 ft | 56 kts | 298° |
| 2026-04-13 12:11 | -34.12842 | 150.89595 | 1160 ft | 73 kts | 53° |
| 2026-04-13 12:12 | -34.12811 | 150.89891 | 1233 ft | 26 kts | 138° |
| 2026-04-13 12:12 | -34.12985 | 150.90076 | 1273 ft | 47 kts | 130° |
| 2026-04-13 12:12 | -34.13254 | 150.90548 | 1514 ft | 84 kts | 116° |
| 2026-04-13 12:12 | -34.13471 | 150.91295 | 1220 ft | 101 kts | 62° |
| 2026-04-13 12:13 | -34.13430 | 150.91705 | 1335 ft | 80 kts | 335° |
| 2026-04-13 12:13 | -34.13240 | 150.92130 | 1358 ft | 40 kts | 253° |
| 2026-04-13 12:13 | -34.13091 | 150.92341 | 1299 ft | 29 kts | 256° |
| 2026-04-13 12:13 | -34.13057 | 150.92323 | 1365 ft | 44 kts | 256° |
| 2026-04-13 12:14 | -34.13236 | 150.91798 | 1383 ft | 65 kts | 246° |
| 2026-04-13 12:14 | -34.13396 | 150.91341 | 1187 ft | 51 kts | 224° |
| 2026-04-13 12:14 | -34.13483 | 150.91014 | 1145 ft | 36 kts | 272° |
| 2026-04-13 12:14 | -34.13328 | 150.90822 | 1230 ft | 32 kts | 323° |
| 2026-04-13 12:15 | -34.13153 | 150.90982 | 1170 ft | 50 kts | 69° |
| 2026-04-13 12:15 | -34.13291 | 150.91304 | 1038 ft | 26 kts | 273° |
| 2026-04-13 12:15 | -34.13251 | 150.91299 | 989 ft | 21 kts | 268° |
| 2026-04-13 12:15 | -34.13243 | 150.91106 | 1048 ft | 26 kts | 268° |
| 2026-04-13 12:16 | -34.13210 | 150.90869 | 1062 ft | 33 kts | 262° |
| 2026-04-13 12:16 | -34.13173 | 150.90650 | 1036 ft | 24 kts | 264° |
| 2026-04-13 12:16 | -34.13164 | 150.90454 | 1101 ft | 20 kts | 319° |
| 2026-04-13 12:16 | -34.13161 | 150.90449 | 999 ft | 19 kts | 347° |
| 2026-04-13 12:17 | -34.13166 | 150.90456 | 941 ft | 8 kts | 345° |
| 2026-04-13 12:17 | -34.13131 | 150.90449 | 941 ft | 1 kts | 344° |
| 2026-04-13 12:17 | -34.13122 | 150.90443 | 941 ft | 6 kts | 348° |
| 2026-04-13 12:17 | -34.13114 | 150.90439 | 924 ft | 1 kts | 358° |
| 2026-04-13 12:18 | -34.13103 | 150.90435 | 945 ft | 4 kts | 7° |
| 2026-04-13 12:18 | -34.13101 | 150.90558 | 1013 ft | 31 kts | 90° |
| 2026-04-13 12:18 | -34.13195 | 150.90871 | 1314 ft | 45 kts | 122° |
| 2026-04-13 12:18 | -34.13295 | 150.91293 | 1605 ft | 64 kts | 121° |
| 2026-04-13 12:19 | -34.13422 | 150.91993 | 936 ft | 108 kts | 84° |
| 2026-04-13 12:19 | -34.13094 | 150.92291 | 670 ft | 54 kts | 330° |
| 2026-04-13 12:19 | -34.12693 | 150.92302 | 737 ft | 77 kts | 29° |
| 2026-04-13 12:19 | -34.12171 | 150.92775 | 1105 ft | 110 kts | 37° |
| 2026-04-13 12:20 | -34.11320 | 150.92428 | 1278 ft | 145 kts | 314° |
| 2026-04-13 12:20 | -34.10593 | 150.91719 | 1033 ft | 116 kts | 319° |
| 2026-04-13 12:20 | -34.10103 | 150.91385 | 1162 ft | 61 kts | 319° |
| 2026-04-13 12:20 | -34.09682 | 150.91089 | 960 ft | 76 kts | 318° |
| 2026-04-13 12:21 | -34.09245 | 150.90769 | 882 ft | 74 kts | 316° |
| 2026-04-13 12:21 | -34.08768 | 150.90491 | 947 ft | 76 kts | 350° |
| 2026-04-13 12:21 | -34.08395 | 150.90556 | 938 ft | 40 kts | 351° |
| 2026-04-13 12:21 | -34.08107 | 150.90788 | 929 ft | 57 kts | 41° |
| 2026-04-13 12:22 | -34.07896 | 150.91062 | 1005 ft | 37 kts | 59° |
| 2026-04-13 12:22 | -34.07789 | 150.91271 | 983 ft | 24 kts | 76° |
| 2026-04-13 12:22 | -34.07797 | 150.91430 | 885 ft | 14 kts | 96° |
| 2026-04-13 12:22 | -34.07796 | 150.91498 | 825 ft | 5 kts | 113° |
| 2026-04-13 12:23 | -34.07743 | 150.91471 | 838 ft | 13 kts | 127° |
| 2026-04-13 12:23 | -34.07607 | 150.91467 | 879 ft | 38 kts | 89° |
| 2026-04-13 12:23 | -34.07225 | 150.91647 | 1104 ft | 76 kts | 13° |
| 2026-04-13 12:23 | -34.06618 | 150.91914 | 1093 ft | 101 kts | 21° |
| 2026-04-13 12:24 | -34.05937 | 150.92240 | 938 ft | 112 kts | 19° |
| 2026-04-13 12:24 | -34.05167 | 150.92574 | 673 ft | 125 kts | 21° |
| 2026-04-13 12:24 | -34.04371 | 150.92915 | 540 ft | 115 kts | 20° |
| 2026-04-13 12:24 | -34.03652 | 150.93204 | 528 ft | 107 kts | 18° |
| 2026-04-13 12:25 | -34.02993 | 150.93613 | 462 ft | 109 kts | 36° |
| 2026-04-13 12:25 | -34.02249 | 150.93804 | 422 ft | 110 kts | 11° |
| 2026-04-13 12:25 | -34.01648 | 150.93903 | 580 ft | 72 kts | 349° |
| 2026-04-13 12:25 | -34.01126 | 150.93935 | 1219 ft | 76 kts | 20° |
| 2026-04-13 12:26 | -34.00920 | 150.94174 | 826 ft | 30 kts | 119° |
| 2026-04-13 12:26 | -34.00985 | 150.94266 | 806 ft | 24 kts | 89° |
| 2026-04-13 12:26 | -34.01153 | 150.94360 | 575 ft | 36 kts | 284° |
| 2026-04-13 12:26 | -34.01034 | 150.94336 | 401 ft | 9 kts | 92° |
| 2026-04-13 12:27 | -34.01049 | 150.94338 | 338 ft | 0 kts | 62° |
| 2026-04-13 12:31 | -34.01039 | 150.94373 | 385 ft | 22 kts | 57° |
| 2026-04-13 12:32 | -34.00875 | 150.94658 | 608 ft | 50 kts | 26° |
| 2026-04-13 12:32 | -34.00502 | 150.94622 | 850 ft | 49 kts | 24° |
| 2026-04-13 12:32 | -34.00268 | 150.94854 | 829 ft | 61 kts | 97° |
| 2026-04-13 12:32 | -34.00372 | 150.95503 | 659 ft | 78 kts | 79° |
| 2026-04-13 12:33 | -34.00211 | 150.95944 | 693 ft | 38 kts | 359° |
| 2026-04-13 12:33 | -33.99976 | 150.95831 | 444 ft | 50 kts | 327° |
| 2026-04-13 12:33 | -33.99740 | 150.95520 | 287 ft | 47 kts | 307° |
| 2026-04-13 12:33 | -33.99592 | 150.95259 | 254 ft | 15 kts | 305° |
| 2026-04-13 12:34 | -33.99542 | 150.95258 | 253 ft | 7 kts | 35° |
| 2026-04-13 12:34 | -33.99514 | 150.95279 | 252 ft | 3 kts | 31° |
| 2026-04-13 12:34 | -33.99493 | 150.95287 | 253 ft | 6 kts | 302° |
| 2026-04-13 12:34 | -33.99465 | 150.95236 | 251 ft | 7 kts | 303° |
| 2026-04-13 12:35 | -33.99452 | 150.95212 | 250 ft | 0 kts | 303° |